createdAt,value
2018-10-17T00:00:06.930Z,14.43
2018-10-17T00:02:35.484Z,17.70
2018-10-17T00:05:04.153Z,15.10
2018-10-17T00:07:32.613Z,14.83
2018-10-17T00:10:01.139Z,14.70
2018-10-17T00:12:29.825Z,14.83
2018-10-17T00:14:58.299Z,14.47
2018-10-17T00:17:26.947Z,14.83
2018-10-17T00:19:55.438Z,15.27
2018-10-17T00:22:24.052Z,15.00
2018-10-17T00:24:52.615Z,14.73
2018-10-17T00:27:21.163Z,15.83
2018-10-17T00:29:51.410Z,15.77
2018-10-17T00:32:19.961Z,15.93
2018-10-17T00:34:48.663Z,15.47
2018-10-17T00:37:17.173Z,14.73
2018-10-17T00:39:45.641Z,13.80
2018-10-17T00:42:14.315Z,14.50
2018-10-17T00:44:42.818Z,15.00
2018-10-17T00:47:11.455Z,14.27
2018-10-17T00:49:39.898Z,14.93
2018-10-17T00:52:09.166Z,16.13
2018-10-17T00:54:37.731Z,14.37
2018-10-17T00:57:06.335Z,15.67
2018-10-17T00:59:34.854Z,14.60
2018-10-17T01:02:03.468Z,13.70
2018-10-17T01:04:32.053Z,14.73
2018-10-17T01:07:00.664Z,14.70
2018-10-17T01:09:29.756Z,15.13
2018-10-17T01:11:58.223Z,15.27
2018-10-17T01:14:27.366Z,14.57
2018-10-17T01:16:55.906Z,15.23
2018-10-17T01:19:24.516Z,16.03
2018-10-17T01:21:53.190Z,14.80
2018-10-17T01:24:21.827Z,16.03
2018-10-17T01:26:50.510Z,17.50
2018-10-17T01:29:19.049Z,14.90
2018-10-17T01:31:47.570Z,14.40
2018-10-17T01:34:16.211Z,15.00
2018-10-17T01:36:44.706Z,15.07
2018-10-17T01:39:13.431Z,14.57
2018-10-17T01:41:41.974Z,15.80
2018-10-17T01:44:10.639Z,15.07
2018-10-17T01:46:39.218Z,15.97
2018-10-17T01:49:07.751Z,15.70
2018-10-17T01:51:36.295Z,17.20
2018-10-17T01:54:04.936Z,16.10
2018-10-17T01:56:33.913Z,15.13
2018-10-17T01:59:02.473Z,15.87
2018-10-17T02:01:31.083Z,15.83
2018-10-17T02:03:59.604Z,18.13
2018-10-17T02:06:28.255Z,17.83
2018-10-17T02:08:56.756Z,17.07
2018-10-17T02:11:26.050Z,16.40
2018-10-17T02:13:54.616Z,17.10
2018-10-17T02:16:23.174Z,16.73
2018-10-17T02:18:51.896Z,17.10
2018-10-17T02:21:21.139Z,16.67
2018-10-17T02:23:49.804Z,18.67
2018-10-17T02:26:18.294Z,16.40
2018-10-17T02:28:46.777Z,15.97
2018-10-17T02:31:15.553Z,16.30
2018-10-17T02:33:43.995Z,14.97
2018-10-17T02:36:12.651Z,14.03
2018-10-17T02:38:41.198Z,15.07
2018-10-17T02:41:09.938Z,15.20
2018-10-17T02:43:38.385Z,15.30
2018-10-17T02:46:07.042Z,15.47
2018-10-17T02:48:35.571Z,15.70
2018-10-17T02:51:04.207Z,16.23
2018-10-17T02:53:32.706Z,16.23
2018-10-17T02:56:01.339Z,17.03
2018-10-17T02:58:29.875Z,15.37
2018-10-17T03:00:58.469Z,16.63
2018-10-17T03:03:27.010Z,17.40
2018-10-17T03:05:55.572Z,16.97
2018-10-17T03:08:24.190Z,20.00
2018-10-17T03:10:52.762Z,17.13
2018-10-17T03:13:21.501Z,18.33
2018-10-17T03:15:50.016Z,21.67
2018-10-17T03:18:19.335Z,19.53
2018-10-17T03:20:47.906Z,16.83
2018-10-17T03:23:17.067Z,17.40
2018-10-17T03:25:45.575Z,18.63
2018-10-17T03:28:14.250Z,18.60
2018-10-17T03:30:42.867Z,18.77
2018-10-17T03:33:11.347Z,17.43
2018-10-17T03:35:40.103Z,17.57
2018-10-17T03:38:08.618Z,18.13
2018-10-17T03:40:37.406Z,20.20
2018-10-17T03:43:06.049Z,18.87
2018-10-17T03:45:34.550Z,20.30
2018-10-17T03:48:03.232Z,20.33
2018-10-17T03:50:31.711Z,20.67
2018-10-17T03:53:00.356Z,18.60
2018-10-17T03:55:28.935Z,18.13
2018-10-17T03:57:57.628Z,17.47
2018-10-17T04:00:26.159Z,17.30
2018-10-17T04:02:54.855Z,17.93
2018-10-17T04:05:23.361Z,16.90
2018-10-17T04:07:51.821Z,16.43
2018-10-17T04:10:20.501Z,17.77
2018-10-17T04:12:49.064Z,17.70
2018-10-17T04:15:17.755Z,17.30
2018-10-17T04:17:46.255Z,17.43
2018-10-17T04:20:14.775Z,17.53
2018-10-17T04:22:59.724Z,17.73
2018-10-17T04:25:28.259Z,17.43
2018-10-17T04:27:57.682Z,16.83
2018-10-17T04:30:26.427Z,17.53
2018-10-17T04:32:55.020Z,18.10
2018-10-17T04:35:24.456Z,18.23
2018-10-17T04:37:54.021Z,16.90
2018-10-17T04:40:22.619Z,18.90
2018-10-17T04:42:51.134Z,17.57
2018-10-17T04:45:19.664Z,17.57
2018-10-17T04:47:48.262Z,18.37
2018-10-17T04:50:16.850Z,17.80
2018-10-17T04:52:45.398Z,17.27
2018-10-17T04:55:14.165Z,18.83
2018-10-17T04:57:42.664Z,18.97
2018-10-17T05:00:12.342Z,18.03
2018-10-17T05:02:42.165Z,19.13
2018-10-17T05:05:10.776Z,19.60
2018-10-17T05:07:39.270Z,19.40
2018-10-17T05:10:07.856Z,20.20
2018-10-17T05:12:36.427Z,18.87
2018-10-17T05:15:05.381Z,21.87
2018-10-17T05:17:33.899Z,21.17
2018-10-17T05:20:02.583Z,20.67
2018-10-17T05:22:31.083Z,18.27
2018-10-17T05:24:59.684Z,18.97
2018-10-17T05:27:28.118Z,19.87
2018-10-17T05:29:56.954Z,21.63
2018-10-17T05:32:26.194Z,21.47
2018-10-17T05:34:54.774Z,19.30
2018-10-17T05:37:23.476Z,18.67
2018-10-17T05:39:52.011Z,19.63
2018-10-17T05:42:20.567Z,19.90
2018-10-17T05:44:49.791Z,21.50
2018-10-17T05:47:18.331Z,21.30
2018-10-17T05:49:46.929Z,23.37
2018-10-17T05:52:15.523Z,18.60
2018-10-17T05:54:44.012Z,21.17
2018-10-17T05:57:12.501Z,19.87
2018-10-17T05:59:41.102Z,21.07
2018-10-17T06:02:13.345Z,19.63
2018-10-17T06:04:41.754Z,20.07
2018-10-17T06:07:10.656Z,19.27
2018-10-17T06:09:39.034Z,20.30
2018-10-17T06:12:08.242Z,20.20
2018-10-17T06:14:36.799Z,22.73
2018-10-17T06:17:06.358Z,19.10
2018-10-17T06:19:35.759Z,22.90
2018-10-17T06:22:04.383Z,22.73
2018-10-17T06:24:32.879Z,22.77
2018-10-17T06:27:01.446Z,22.83
2018-10-17T06:29:29.944Z,22.07
2018-10-17T06:31:58.438Z,20.97
2018-10-17T06:34:27.304Z,21.93
2018-10-17T06:36:56.044Z,19.47
2018-10-17T06:39:24.502Z,19.00
2018-10-17T06:41:54.352Z,20.53
2018-10-17T06:44:23.591Z,18.77
2018-10-17T06:46:52.256Z,22.97
2018-10-17T06:49:20.925Z,22.50
2018-10-17T06:51:49.458Z,23.23
2018-10-17T06:54:18.323Z,18.37
2018-10-17T06:56:46.899Z,22.50
2018-10-17T06:59:15.479Z,21.37
2018-10-17T07:01:44.211Z,22.63
2018-10-17T07:04:13.307Z,20.17
2018-10-17T07:06:41.964Z,20.10
2018-10-17T07:09:10.986Z,22.50
2018-10-17T07:11:39.870Z,19.50
2018-10-17T07:14:08.686Z,22.13
2018-10-17T07:16:37.322Z,20.00
2018-10-17T07:19:06.143Z,19.23
2018-10-17T07:21:34.701Z,18.80
2018-10-17T07:24:03.360Z,19.93
2018-10-17T07:26:31.993Z,17.47
2018-10-17T07:29:01.009Z,19.60
2018-10-17T07:31:29.469Z,19.57
2018-10-17T07:33:58.170Z,18.17
2018-10-17T07:36:26.716Z,18.17
2018-10-17T07:38:55.458Z,20.27
2018-10-17T07:41:24.096Z,21.60
2018-10-17T07:43:52.697Z,19.03
2018-10-17T07:46:21.355Z,16.90
2018-10-17T07:48:49.831Z,20.00
2018-10-17T07:51:18.362Z,17.23
2018-10-17T07:53:47.098Z,19.07
2018-10-17T07:56:15.738Z,17.83
2018-10-17T07:58:45.294Z,17.00
2018-10-17T08:01:15.559Z,18.63
2018-10-17T08:03:44.072Z,18.00
2018-10-17T08:06:12.757Z,19.60
2018-10-17T08:08:41.262Z,22.80
2018-10-17T08:11:09.925Z,19.70
2018-10-17T08:13:38.534Z,27.00
2018-10-17T08:16:07.148Z,18.97
2018-10-17T08:18:35.698Z,20.43
2018-10-17T08:21:04.300Z,23.83
2018-10-17T08:23:32.778Z,20.83
2018-10-17T08:26:01.456Z,20.40
2018-10-17T08:28:29.974Z,25.27
2018-10-17T08:30:58.555Z,19.37
2018-10-17T08:33:27.383Z,17.77
2018-10-17T08:35:56.005Z,17.30
2018-10-17T08:38:24.428Z,16.93
2018-10-17T08:40:53.125Z,19.63
2018-10-17T08:43:21.766Z,20.13
2018-10-17T08:45:51.256Z,17.83
2018-10-17T08:48:20.906Z,18.53
2018-10-17T08:50:49.551Z,17.53
2018-10-17T08:53:18.164Z,16.70
2018-10-17T08:55:46.805Z,19.33
2018-10-17T08:58:15.380Z,17.67
2018-10-17T09:00:44.066Z,19.13
2018-10-17T09:03:12.593Z,17.47
2018-10-17T09:05:41.207Z,14.73
2018-10-17T09:08:09.847Z,13.00
2018-10-17T09:10:38.282Z,20.97
2018-10-17T09:13:06.922Z,18.23
2018-10-17T09:15:38.381Z,14.27
2018-10-17T09:18:04.171Z,15.00
2018-10-17T09:20:33.192Z,13.20
2018-10-17T09:23:01.403Z,17.63
2018-10-17T09:25:30.027Z,13.23
2018-10-17T09:27:58.702Z,14.63
2018-10-17T09:30:27.467Z,16.30
2018-10-17T09:32:55.974Z,13.40
2018-10-17T09:35:24.566Z,20.80
2018-10-17T09:37:53.050Z,15.40
2018-10-17T09:40:21.699Z,18.37
2018-10-17T09:42:52.172Z,15.90
2018-10-17T09:45:20.794Z,14.30
2018-10-17T09:47:49.485Z,18.03
2018-10-17T09:50:17.991Z,14.77
2018-10-17T09:52:46.617Z,13.13
2018-10-17T09:55:15.130Z,12.87
2018-10-17T09:57:43.760Z,14.73
2018-10-17T10:00:17.662Z,14.27
2018-10-17T10:02:46.215Z,13.47
2018-10-17T10:05:14.734Z,12.97
2018-10-17T10:07:43.263Z,11.53
2018-10-17T10:10:11.938Z,14.77
2018-10-17T10:12:40.579Z,16.90
2018-10-17T10:15:09.127Z,12.00
2018-10-17T10:17:37.861Z,12.70
2018-10-17T10:20:06.420Z,11.53
2018-10-17T10:22:34.961Z,12.53
2018-10-17T10:25:03.558Z,12.27
2018-10-17T10:27:32.044Z,12.60
2018-10-17T10:30:00.715Z,13.33
2018-10-17T10:32:29.239Z,12.63
2018-10-17T10:34:57.846Z,13.50
2018-10-17T10:37:26.398Z,13.73
2018-10-17T10:39:55.029Z,11.10
2018-10-17T10:42:23.546Z,10.27
2018-10-17T10:44:52.132Z,14.07
2018-10-17T10:47:20.611Z,11.13
2018-10-17T10:49:49.144Z,10.80
2018-10-17T10:52:17.877Z,11.27
2018-10-17T10:54:47.286Z,14.57
2018-10-17T10:57:15.952Z,12.97
2018-10-17T10:59:44.581Z,11.57
2018-10-17T11:02:13.153Z,9.50
2018-10-17T11:04:41.630Z,12.70
2018-10-17T11:07:10.204Z,14.90
2018-10-17T11:09:38.716Z,13.57
2018-10-17T11:12:07.358Z,11.93
2018-10-17T11:14:36.053Z,16.23
2018-10-17T11:17:04.922Z,14.33
2018-10-17T11:19:33.414Z,13.40
2018-10-17T11:22:02.218Z,14.20
2018-10-17T11:24:30.681Z,13.93
2018-10-17T11:26:59.311Z,16.07
2018-10-17T11:29:27.819Z,19.97
2018-10-17T11:31:56.444Z,12.63
2018-10-17T11:34:25.249Z,12.87
2018-10-17T11:36:53.967Z,15.30
2018-10-17T11:39:22.523Z,12.90
2018-10-17T11:41:51.142Z,12.10
2018-10-17T11:44:20.140Z,16.40
2018-10-17T11:46:48.671Z,15.17
2018-10-17T11:49:17.203Z,16.87
2018-10-17T11:51:45.703Z,12.53
2018-10-17T11:54:14.320Z,15.93
2018-10-17T11:56:43.159Z,14.87
2018-10-17T11:59:11.712Z,12.40
2018-10-17T12:01:40.142Z,11.47
2018-10-17T12:04:09.075Z,12.57
2018-10-17T12:06:37.556Z,13.07
2018-10-17T12:09:07.958Z,10.80
2018-10-17T12:11:36.415Z,11.23
2018-10-17T12:14:05.233Z,14.53
2018-10-17T12:16:34.457Z,12.57
2018-10-17T12:19:03.128Z,12.87
2018-10-17T12:21:31.767Z,13.27
2018-10-17T12:24:00.451Z,11.50
2018-10-17T12:26:28.986Z,15.57
2018-10-17T12:28:58.412Z,12.27
2018-10-17T12:31:26.846Z,8.90
2018-10-17T12:33:55.367Z,11.13
2018-10-17T12:36:24.020Z,9.27
2018-10-17T12:38:52.633Z,8.17
2018-10-17T12:41:21.197Z,9.70
2018-10-17T12:43:49.747Z,8.40
2018-10-17T12:46:18.368Z,9.63
2018-10-17T12:48:46.967Z,10.57
2018-10-17T12:51:15.515Z,8.50
2018-10-17T12:53:44.246Z,10.97
2018-10-17T12:56:12.962Z,10.23
2018-10-17T12:58:41.420Z,10.70
2018-10-17T13:01:09.943Z,10.00
2018-10-17T13:03:38.596Z,11.13
2018-10-17T13:06:08.280Z,9.20
2018-10-17T13:08:36.971Z,9.83
2018-10-17T13:11:05.845Z,8.97
2018-10-17T13:13:34.413Z,9.97
2018-10-17T13:16:03.042Z,8.93
2018-10-17T13:18:31.675Z,9.30
2018-10-17T13:21:00.863Z,8.23
2018-10-17T13:23:29.456Z,8.93
2018-10-17T13:25:58.051Z,8.70
2018-10-17T13:28:26.845Z,11.87
2018-10-17T13:30:55.425Z,10.97
2018-10-17T13:33:23.994Z,8.43
2018-10-17T13:35:52.600Z,10.90
2018-10-17T13:38:21.288Z,11.80
2018-10-17T13:40:50.014Z,7.43
2018-10-17T13:43:18.780Z,9.17
2018-10-17T13:45:47.238Z,9.13
2018-10-17T13:48:15.802Z,8.07
2018-10-17T13:50:44.314Z,7.03
2018-10-17T13:53:12.934Z,11.30
2018-10-17T13:55:41.731Z,9.73
2018-10-17T13:58:10.452Z,9.37
2018-10-17T14:00:38.926Z,11.07
2018-10-17T14:03:07.638Z,6.77
2018-10-17T14:05:36.902Z,10.77
2018-10-17T14:08:05.494Z,10.53
2018-10-17T14:10:34.991Z,11.50
2018-10-17T14:13:03.544Z,11.43
2018-10-17T14:15:32.159Z,8.57
2018-10-17T14:18:00.669Z,9.57
2018-10-17T14:20:29.223Z,7.90
2018-10-17T14:22:58.763Z,15.27
2018-10-17T14:25:27.337Z,7.57
2018-10-17T14:27:55.902Z,12.03
2018-10-17T14:30:24.382Z,11.73
2018-10-17T14:32:52.960Z,9.33
2018-10-17T14:35:21.530Z,11.90
2018-10-17T14:37:50.118Z,10.97
2018-10-17T14:40:18.659Z,7.60
2018-10-17T14:42:47.226Z,7.83
2018-10-17T14:45:15.800Z,12.40
2018-10-17T14:47:44.247Z,7.87
2018-10-17T14:50:12.942Z,8.37
2018-10-17T14:52:41.463Z,8.30
2018-10-17T14:55:10.046Z,7.20
2018-10-17T14:57:38.610Z,8.30
2018-10-17T15:00:09.492Z,9.93
2018-10-17T15:02:38.055Z,8.03
2018-10-17T15:05:07.735Z,10.83
2018-10-17T15:07:36.298Z,8.97
2018-10-17T15:10:04.964Z,7.33
2018-10-17T15:12:33.435Z,11.03
2018-10-17T15:15:02.028Z,9.87
2018-10-17T15:17:30.635Z,9.83
2018-10-17T15:19:59.142Z,7.83
2018-10-17T15:22:27.858Z,7.93
2018-10-17T15:24:56.457Z,10.00
2018-10-17T15:27:25.131Z,10.73
2018-10-17T15:29:53.673Z,9.53
2018-10-17T15:32:22.224Z,8.47
2018-10-17T15:34:50.872Z,7.33
2018-10-17T15:37:19.494Z,10.40
2018-10-17T15:39:48.106Z,7.13
2018-10-17T15:42:16.743Z,8.10
2018-10-17T15:44:45.294Z,8.00
2018-10-17T15:47:14.167Z,8.83
2018-10-17T15:49:42.766Z,8.30
2018-10-17T15:52:12.227Z,8.67
2018-10-17T15:54:40.792Z,9.47
2018-10-17T15:57:09.469Z,8.87
2018-10-17T15:59:37.947Z,9.80
2018-10-17T16:02:06.554Z,9.40
2018-10-17T16:04:35.180Z,7.50
2018-10-17T16:07:03.794Z,9.80
2018-10-17T16:09:32.682Z,10.07
2018-10-17T16:12:01.315Z,9.80
2018-10-17T16:14:30.563Z,9.30
2018-10-17T16:16:59.187Z,11.67
2018-10-17T16:19:27.740Z,9.83
2018-10-17T16:21:56.316Z,11.23
2018-10-17T16:24:25.003Z,9.53
2018-10-17T16:26:53.627Z,9.63
2018-10-17T16:29:22.186Z,11.03
2018-10-17T16:31:51.851Z,9.07
2018-10-17T16:34:20.395Z,13.83
2018-10-17T16:36:49.090Z,10.20
2018-10-17T16:39:17.636Z,13.50
2018-10-17T16:41:46.214Z,13.47
2018-10-17T16:44:14.891Z,12.83
2018-10-17T16:46:43.452Z,14.67
2018-10-17T16:49:12.006Z,13.73
2018-10-17T16:51:40.634Z,14.53
2018-10-17T16:54:09.283Z,13.17
2018-10-17T16:56:37.882Z,15.63
2018-10-17T16:59:06.409Z,12.90
2018-10-17T17:01:35.116Z,17.47
2018-10-17T17:04:03.715Z,13.40
2018-10-17T17:06:32.386Z,12.63
2018-10-17T17:09:00.920Z,16.67
2018-10-17T17:11:29.510Z,17.90
2018-10-17T17:13:58.131Z,15.20
2018-10-17T17:16:26.945Z,18.23
2018-10-17T17:18:55.582Z,14.83
2018-10-17T17:21:24.199Z,15.90
2018-10-17T17:23:52.810Z,15.67
2018-10-17T17:26:21.351Z,14.53
2018-10-17T17:28:50.028Z,19.57
2018-10-17T17:31:18.648Z,17.67
2018-10-17T17:33:47.336Z,13.30
2018-10-17T17:36:16.043Z,18.70
2018-10-17T17:38:44.634Z,16.10
2018-10-17T17:41:13.419Z,15.43
2018-10-17T17:43:42.102Z,23.20
2018-10-17T17:46:10.847Z,15.17
2018-10-17T17:48:39.546Z,17.07
2018-10-17T17:51:08.163Z,17.30
2018-10-17T17:53:36.770Z,16.23
2018-10-17T17:56:05.666Z,17.53
2018-10-17T17:58:34.554Z,15.87
2018-10-17T18:01:03.055Z,16.50
2018-10-17T18:03:31.767Z,17.70
2018-10-17T18:06:00.383Z,15.97
2018-10-17T18:08:29.407Z,18.60
2018-10-17T18:11:02.799Z,16.40
2018-10-17T18:13:31.523Z,19.37
2018-10-17T18:16:00.247Z,21.57
2018-10-17T18:18:28.866Z,16.33
2018-10-17T18:20:59.374Z,21.13
2018-10-17T18:23:28.856Z,21.80
2018-10-17T18:25:57.919Z,20.93
2018-10-17T18:28:26.906Z,17.43
2018-10-17T18:30:56.564Z,19.67
2018-10-17T18:33:26.186Z,20.90
2018-10-17T18:35:55.001Z,20.63
2018-10-17T18:38:23.688Z,20.97
2018-10-17T18:40:52.515Z,24.87
2018-10-17T18:43:21.318Z,26.93
2018-10-17T18:45:53.393Z,27.43
2018-10-17T18:48:22.441Z,23.40
2018-10-17T18:50:51.484Z,21.97
2018-10-17T18:53:20.099Z,26.63
2018-10-17T18:55:48.834Z,24.60
2018-10-17T18:58:18.015Z,28.87
2018-10-17T19:00:46.695Z,27.07
2018-10-17T19:03:15.740Z,30.37
2018-10-17T19:05:44.697Z,35.13
2018-10-17T19:08:15.012Z,34.03
2018-10-17T19:10:44.388Z,34.77
2018-10-17T19:13:13.380Z,35.40
2018-10-17T19:15:42.024Z,36.40
2018-10-17T19:18:10.648Z,40.43
2018-10-17T19:20:39.773Z,36.33
2018-10-17T19:23:08.456Z,38.80
2018-10-17T19:25:37.156Z,36.33
2018-10-17T19:28:06.563Z,41.37
2018-10-17T19:30:35.241Z,36.73
2018-10-17T19:33:04.776Z,39.03
2018-10-17T19:35:33.603Z,37.13
2018-10-17T19:38:02.417Z,40.00
2018-10-17T19:40:31.063Z,39.87
2018-10-17T19:42:59.730Z,38.83
2018-10-17T19:45:28.437Z,43.57
2018-10-17T19:47:57.249Z,38.93
2018-10-17T19:50:25.983Z,39.90
2018-10-17T19:52:54.563Z,41.83
2018-10-17T19:55:23.371Z,42.47
2018-10-17T19:57:52.112Z,40.33
2018-10-17T20:00:20.800Z,39.60
2018-10-17T20:02:49.482Z,39.53
2018-10-17T20:05:18.174Z,40.23
2018-10-17T20:07:46.954Z,43.80
2018-10-17T20:10:15.625Z,41.73
2018-10-17T20:12:44.351Z,43.33
2018-10-17T20:15:13.215Z,38.50
2018-10-17T20:17:41.890Z,46.50
2018-10-17T20:20:10.980Z,43.13
2018-10-17T20:22:39.615Z,45.33
2018-10-17T20:25:09.411Z,46.00
2018-10-17T20:27:38.160Z,42.57
2018-10-17T20:30:07.779Z,40.43
2018-10-17T20:32:36.519Z,42.00
2018-10-17T20:35:05.894Z,50.57
2018-10-17T20:37:34.399Z,44.17
2018-10-17T20:40:03.180Z,47.23
2018-10-17T20:42:31.757Z,49.10
2018-10-17T20:45:01.234Z,47.63
2018-10-17T20:47:30.059Z,45.83
2018-10-17T20:49:58.669Z,47.83
2018-10-17T20:52:27.351Z,52.17
2018-10-17T20:54:55.818Z,53.53
2018-10-17T20:57:24.394Z,50.10
2018-10-17T20:59:53.055Z,52.33
2018-10-17T21:02:21.645Z,51.07
2018-10-17T21:04:50.215Z,54.93
2018-10-17T21:07:18.802Z,63.00
2018-10-17T21:09:47.430Z,53.57
2018-10-17T21:12:16.846Z,56.80
2018-10-17T21:14:45.347Z,55.77
2018-10-17T21:17:13.831Z,51.13
2018-10-17T21:19:42.495Z,54.43
2018-10-17T21:22:11.103Z,54.50
2018-10-17T21:24:39.708Z,53.40
2018-10-17T21:27:08.377Z,57.53
2018-10-17T21:29:36.943Z,59.63
2018-10-17T21:32:06.006Z,57.07
2018-10-17T21:34:34.426Z,60.77
2018-10-17T21:37:03.065Z,62.50
2018-10-17T21:39:31.634Z,64.23
2018-10-17T21:42:00.222Z,62.30
2018-10-17T21:44:28.989Z,67.90
2018-10-17T21:46:58.152Z,63.40
2018-10-17T21:49:26.737Z,70.70
2018-10-17T21:51:55.338Z,65.50
2018-10-17T21:54:23.896Z,63.70
2018-10-17T21:56:52.428Z,69.67
2018-10-17T21:59:20.934Z,67.17
2018-10-17T22:01:49.443Z,71.27
2018-10-17T22:04:18.134Z,72.67
2018-10-17T22:06:46.677Z,78.47
2018-10-17T22:09:15.259Z,65.33
2018-10-17T22:11:45.784Z,69.07
2018-10-17T22:14:14.471Z,71.13
2018-10-17T22:16:48.405Z,72.23
2018-10-17T22:19:17.218Z,70.17
2018-10-17T22:21:45.561Z,72.10
2018-10-17T22:24:14.108Z,76.50
2018-10-17T22:26:42.721Z,80.67
2018-10-17T22:29:11.396Z,77.90
2018-10-17T22:31:39.944Z,77.17
2018-10-17T22:34:08.578Z,79.07
2018-10-17T22:36:37.098Z,79.63
2018-10-17T22:39:09.430Z,82.97
2018-10-17T22:41:38.186Z,83.67
2018-10-17T22:44:06.907Z,82.73
2018-10-17T22:46:35.491Z,81.90
2018-10-17T22:49:04.290Z,77.23
2018-10-17T22:51:32.894Z,82.70
2018-10-17T22:54:01.432Z,82.50
2018-10-17T22:56:30.095Z,75.23
2018-10-17T22:58:59.527Z,77.83
2018-10-17T23:01:28.163Z,81.20
2018-10-17T23:03:56.782Z,92.03
2018-10-17T23:06:25.341Z,80.77
2018-10-17T23:08:54.165Z,77.57
2018-10-17T23:11:22.679Z,86.80
2018-10-17T23:13:51.142Z,79.90
2018-10-17T23:16:19.715Z,84.07
2018-10-17T23:18:48.253Z,83.13
2018-10-17T23:21:16.718Z,81.43
2018-10-17T23:23:45.306Z,80.33
2018-10-17T23:26:14.032Z,77.13
2018-10-17T23:28:42.553Z,78.97
2018-10-17T23:31:11.131Z,88.73
2018-10-17T23:33:39.655Z,78.63
2018-10-17T23:36:08.240Z,79.70
2018-10-17T23:38:36.735Z,89.13
2018-10-17T23:41:05.344Z,81.23
2018-10-17T23:43:33.906Z,80.70
2018-10-17T23:46:02.411Z,88.67
2018-10-17T23:48:30.873Z,87.20
2018-10-17T23:50:59.362Z,78.27
2018-10-17T23:53:27.969Z,80.03
2018-10-17T23:55:56.502Z,84.60
2018-10-17T23:58:25.325Z,81.73
